sensor_id;sensor_type;location;lat;lon;timestamp;pressure;altitude;pressure_sealevel;temperature;humidity
60427;BME280;46274;47.168;27.604;2024-01-16T09:00:53;98486.97;;;1.90;57.13
60427;BME280;46274;47.168;27.604;2024-01-16T09:07:55;98338.84;;;1.17;54.93
60427;BME280;46274;47.168;27.604;2024-01-16T09:14:52;98404.28;;;1.72;55.08
60427;BME280;46274;47.168;27.604;2024-01-16T09:21:56;98734.91;;;4.07;53.81
60427;BME280;46274;47.168;27.604;2024-01-16T09:29:01;98663.22;;;3.76;53.20
60427;BME280;46274;47.168;27.604;2024-01-16T09:42:29;98424.66;;;2.40;50.42
60427;BME280;46274;47.168;27.604;2024-01-16T09:48:57;98747.63;;;4.05;51.54
60427;BME280;46274;47.168;27.604;2024-01-16T09:55:20;98573.50;;;2.98;50.74
60427;BME280;46274;47.168;27.604;2024-01-16T10:02:44;98439.28;;;2.03;51.06
60427;BME280;46274;47.168;27.604;2024-01-16T10:17:34;98769.06;;;4.05;51.13
60427;BME280;46274;47.168;27.604;2024-01-16T10:24:26;98492.69;;;2.54;51.55
60427;BME280;46274;47.168;27.604;2024-01-16T10:38:37;98542.06;;;3.09;49.83
60427;BME280;46274;47.168;27.604;2024-01-16T10:45:23;98781.78;;;4.60;50.83
60427;BME280;46274;47.168;27.604;2024-01-16T11:00:06;98453.28;;;2.80;49.52
60427;BME280;46274;47.168;27.604;2024-01-16T11:14:27;98495.56;;;3.10;49.34
60427;BME280;46274;47.168;27.604;2024-01-16T11:21:34;98484.19;;;2.83;49.26
60427;BME280;46274;47.168;27.604;2024-01-16T11:28:14;98518.31;;;2.97;48.58
60427;BME280;46274;47.168;27.604;2024-01-16T11:55:27;98484.44;;;2.31;49.39
60427;BME280;46274;47.168;27.604;2024-01-16T12:01:45;98499.00;;;2.53;48.06
60427;BME280;46274;47.168;27.604;2024-01-16T12:08:08;98515.53;;;2.40;47.66
60427;BME280;46274;47.168;27.604;2024-01-16T12:14:43;98862.06;;;4.62;47.05
60427;BME280;46274;47.168;27.604;2024-01-16T12:21:10;98825.03;;;4.16;47.36
60427;BME280;46274;47.168;27.604;2024-01-16T12:34:31;98585.97;;;2.73;46.36
60427;BME280;46274;47.168;27.604;2024-01-16T12:40:52;98586.63;;;2.67;47.58
60427;BME280;46274;47.168;27.604;2024-01-16T12:47:07;98635.31;;;2.79;47.32
60427;BME280;46274;47.168;27.604;2024-01-16T12:53:42;98560.56;;;2.61;47.22
60427;BME280;46274;47.168;27.604;2024-01-16T13:00:23;98916.56;;;4.95;49.65
60427;BME280;46274;47.168;27.604;2024-01-16T13:07:05;98679.78;;;3.71;47.06
60427;BME280;46274;47.168;27.604;2024-01-16T13:13:40;98638.44;;;3.33;45.56
60427;BME280;46274;47.168;27.604;2024-01-16T13:20:20;98626.19;;;3.06;44.25
60427;BME280;46274;47.168;27.604;2024-01-16T13:40:19;98843.38;;;3.78;45.02
60427;BME280;46274;47.168;27.604;2024-01-16T13:54:08;98712.31;;;2.15;45.46
60427;BME280;46274;47.168;27.604;2024-01-16T14:07:50;99034.28;;;3.80;45.63
60427;BME280;46274;47.168;27.604;2024-01-16T14:14:04;98950.66;;;2.90;46.78
60427;BME280;46274;47.168;27.604;2024-01-16T14:20:08;98875.38;;;2.05;47.81
60427;BME280;46274;47.168;27.604;2024-01-16T14:26:23;99094.44;;;3.06;47.24
60427;BME280;46274;47.168;27.604;2024-01-16T14:32:27;99079.19;;;2.71;47.30
60427;BME280;46274;47.168;27.604;2024-01-16T14:38:42;98842.19;;;1.07;48.47
60427;BME280;46274;47.168;27.604;2024-01-16T14:44:53;99123.53;;;2.46;49.00
60427;BME280;46274;47.168;27.604;2024-01-16T14:50:55;99143.16;;;1.80;50.58
60427;BME280;46274;47.168;27.604;2024-01-16T14:57:01;99148.63;;;1.78;51.79
60427;BME280;46274;47.168;27.604;2024-01-16T15:03:09;99170.38;;;1.93;51.12
60427;BME280;46274;47.168;27.604;2024-01-16T15:09:11;99189.81;;;1.66;52.04
60427;BME280;46274;47.168;27.604;2024-01-16T15:15:15;99196.97;;;1.46;52.62
60427;BME280;46274;47.168;27.604;2024-01-16T15:21:20;99214.25;;;1.22;52.60
60427;BME280;46274;47.168;27.604;2024-01-16T15:27:23;99220.94;;;1.07;52.97
60427;BME280;46274;47.168;27.604;2024-01-16T15:33:25;99225.97;;;1.00;53.94
60427;BME280;46274;47.168;27.604;2024-01-16T15:39:33;99243.88;;;0.79;54.45
60427;BME280;46274;47.168;27.604;2024-01-16T15:45:38;99245.59;;;0.59;55.20
60427;BME280;46274;47.168;27.604;2024-01-16T15:51:41;99227.84;;;0.38;55.76
60427;BME280;46274;47.168;27.604;2024-01-16T15:57:54;99248.31;;;0.38;55.87
60427;BME280;46274;47.168;27.604;2024-01-16T16:03:58;99261.75;;;0.15;57.64
60427;BME280;46274;47.168;27.604;2024-01-16T16:10:01;99270.09;;;0.01;57.79
60427;BME280;46274;47.168;27.604;2024-01-16T16:16:03;99204.47;;;-0.42;57.97
60427;BME280;46274;47.168;27.604;2024-01-16T16:22:06;99205.53;;;-0.33;57.79
60427;BME280;46274;47.168;27.604;2024-01-16T16:28:12;99256.06;;;0.20;56.66
60427;BME280;46274;47.168;27.604;2024-01-16T16:34:16;99316.16;;;0.55;56.14
60427;BME280;46274;47.168;27.604;2024-01-16T16:40:33;99302.41;;;-0.25;56.69
60427;BME280;46274;47.168;27.604;2024-01-16T16:46:39;99303.81;;;-1.65;63.57
60427;BME280;46274;47.168;27.604;2024-01-16T16:52:45;99290.25;;;-1.16;60.82
60427;BME280;46274;47.168;27.604;2024-01-16T16:58:54;99348.44;;;-1.82;64.08
60427;BME280;46274;47.168;27.604;2024-01-16T17:05:03;99350.56;;;-1.98;64.51
60427;BME280;46274;47.168;27.604;2024-01-16T17:11:06;99360.06;;;-1.02;61.34
60427;BME280;46274;47.168;27.604;2024-01-16T17:17:14;99353.53;;;-1.10;60.62
60427;BME280;46274;47.168;27.604;2024-01-16T17:23:22;99389.31;;;-1.02;61.25
60427;BME280;46274;47.168;27.604;2024-01-16T17:29:28;99326.44;;;-1.37;60.92
60427;BME280;46274;47.168;27.604;2024-01-16T17:35:41;99412.97;;;-1.22;61.42
60427;BME280;46274;47.168;27.604;2024-01-16T17:41:51;99415.09;;;-1.49;62.49
60427;BME280;46274;47.168;27.604;2024-01-16T17:48:00;99412.75;;;-1.54;62.29
60427;BME280;46274;47.168;27.604;2024-01-16T17:54:06;99391.19;;;-1.49;61.29
60427;BME280;46274;47.168;27.604;2024-01-16T18:00:17;99432.38;;;-1.33;61.47
60427;BME280;46274;47.168;27.604;2024-01-16T18:06:22;99259.84;;;-2.27;61.25
60427;BME280;46274;47.168;27.604;2024-01-16T18:12:24;99442.25;;;-1.46;62.46
60427;BME280;46274;47.168;27.604;2024-01-16T18:18:50;99439.31;;;-1.19;61.02
60427;BME280;46274;47.168;27.604;2024-01-16T18:25:00;99338.28;;;-1.88;61.36
60427;BME280;46274;47.168;27.604;2024-01-16T18:31:20;99442.31;;;-1.23;61.59
60427;BME280;46274;47.168;27.604;2024-01-16T18:37:26;99456.94;;;-1.29;61.83
60427;BME280;46274;47.168;27.604;2024-01-16T18:43:29;99434.16;;;-1.80;63.40
60427;BME280;46274;47.168;27.604;2024-01-16T18:49:49;99201.22;;;-4.07;64.60
60427;BME280;46274;47.168;27.604;2024-01-16T18:55:59;99494.34;;;-1.67;63.14
60427;BME280;46274;47.168;27.604;2024-01-16T19:02:03;99508.56;;;-1.68;62.59
60427;BME280;46274;47.168;27.604;2024-01-16T19:08:21;99514.16;;;-2.72;66.42
60427;BME280;46274;47.168;27.604;2024-01-16T19:14:35;99520.41;;;-3.39;68.86
60427;BME280;46274;47.168;27.604;2024-01-16T19:20:40;99203.91;;;-5.84;71.03
60427;BME280;46274;47.168;27.604;2024-01-16T19:26:51;99532.66;;;-4.19;73.85
60427;BME280;46274;47.168;27.604;2024-01-16T19:33:00;99545.09;;;-3.11;69.15
60427;BME280;46274;47.168;27.604;2024-01-16T19:39:22;99562.53;;;-3.61;70.35
60427;BME280;46274;47.168;27.604;2024-01-16T19:45:39;99561.56;;;-2.93;66.96
60427;BME280;46274;47.168;27.604;2024-01-16T19:51:56;99437.44;;;-5.18;73.13
60427;BME280;46274;47.168;27.604;2024-01-16T19:58:56;99155.84;;;-5.75;67.61
60427;BME280;46274;47.168;27.604;2024-01-16T20:05:39;99571.59;;;-3.65;69.38
60427;BME280;46274;47.168;27.604;2024-01-16T20:12:35;99542.47;;;-4.07;70.19
60427;BME280;46274;47.168;27.604;2024-01-16T20:19:26;99260.56;;;-6.20;72.12
60427;BME280;46274;47.168;27.604;2024-01-16T20:33:26;99617.28;;;-3.90;70.32
60427;BME280;46274;47.168;27.604;2024-01-16T20:40:13;99258.94;;;-6.06;68.76
60427;BME280;46274;47.168;27.604;2024-01-16T20:47:18;99231.97;;;-6.26;67.91
60427;BME280;46274;47.168;27.604;2024-01-16T21:22:37;99305.16;;;-6.45;68.57
60427;BME280;46274;47.168;27.604;2024-01-16T21:29:45;99678.06;;;-5.40;75.40
60427;BME280;46274;47.168;27.604;2024-01-16T22:42:24;99660.69;;;-5.12;72.28
60427;BME280;46274;47.168;27.604;2024-01-16T22:48:38;99680.59;;;-4.30;70.39
